createdAt,value
2017-03-17T00:00:44.875Z,6.67
2017-03-17T00:01:55.859Z,6.65
2017-03-17T00:03:07.053Z,6.55
2017-03-17T00:04:18.128Z,6.58
2017-03-17T00:05:29.321Z,6.55
2017-03-17T00:06:40.310Z,6.55
2017-03-17T00:07:51.294Z,6.55
2017-03-17T00:09:02.277Z,6.49
2017-03-17T00:10:13.275Z,6.49
2017-03-17T00:11:24.264Z,6.54
2017-03-17T00:12:35.251Z,6.51
2017-03-17T00:13:46.486Z,6.49
2017-03-17T00:14:57.472Z,6.47
2017-03-17T00:16:08.456Z,6.37
2017-03-17T00:17:19.452Z,6.37
2017-03-17T00:18:30.442Z,6.42
2017-03-17T00:19:41.430Z,6.4
2017-03-17T00:20:52.410Z,6.39
2017-03-17T00:22:03.381Z,6.34
2017-03-17T00:23:14.364Z,6.43
2017-03-17T00:24:25.398Z,6.4
2017-03-17T00:25:36.596Z,6.4
2017-03-17T00:26:47.779Z,6.52
2017-03-17T00:27:58.976Z,6.47
2017-03-17T00:29:09.960Z,6.47
2017-03-17T00:30:20.941Z,6.51
2017-03-17T00:31:31.927Z,6.55
2017-03-17T00:32:42.910Z,6.62
2017-03-17T00:33:53.896Z,6.61
2017-03-17T00:35:05.124Z,6.62
2017-03-17T00:36:16.114Z,6.68
2017-03-17T00:37:27.503Z,6.62
2017-03-17T00:38:38.486Z,6.6
2017-03-17T00:39:49.481Z,6.6
2017-03-17T00:41:00.488Z,6.72
2017-03-17T00:42:11.486Z,6.65
2017-03-17T00:43:22.473Z,6.65
2017-03-17T00:44:33.461Z,6.64
2017-03-17T00:45:44.726Z,6.68
2017-03-17T00:46:55.732Z,6.62
2017-03-17T00:48:06.712Z,6.61
2017-03-17T00:49:17.699Z,6.61
2017-03-17T00:50:28.680Z,6.58
2017-03-17T00:51:39.671Z,6.61
2017-03-17T00:52:50.655Z,6.64
2017-03-17T00:54:01.635Z,6.64
2017-03-17T00:55:12.625Z,6.78
2017-03-17T00:56:23.659Z,6.8
2017-03-17T00:57:34.652Z,6.91
2017-03-17T00:58:45.649Z,7
2017-03-17T00:59:56.634Z,7.05
2017-03-17T01:01:07.619Z,7.13
2017-03-17T01:02:18.606Z,7.16
2017-03-17T01:03:29.825Z,7.05
2017-03-17T01:04:40.819Z,7.12
2017-03-17T01:05:51.806Z,7.12
2017-03-17T01:07:02.846Z,7
2017-03-17T01:08:14.031Z,7.04
2017-03-17T01:09:25.033Z,7.15
2017-03-17T01:10:36.019Z,7.22
2017-03-17T01:11:47.014Z,7.26
2017-03-17T01:12:58.193Z,7.26
2017-03-17T01:14:09.181Z,7.21
2017-03-17T01:15:20.173Z,7.19
2017-03-17T01:16:31.359Z,7.29
2017-03-17T01:17:42.364Z,7.31
2017-03-17T01:18:53.367Z,7.36
2017-03-17T01:20:04.352Z,7.36
2017-03-17T01:21:15.339Z,7.47
2017-03-17T01:22:26.332Z,7.55
2017-03-17T01:23:37.528Z,7.59
2017-03-17T01:24:49.170Z,7.71
2017-03-17T01:26:00.156Z,7.67
2017-03-17T01:27:11.144Z,7.75
2017-03-17T01:28:22.136Z,7.83
2017-03-17T01:29:33.167Z,7.92
2017-03-17T01:30:44.154Z,7.91
2017-03-17T01:31:55.138Z,8.01
2017-03-17T01:33:06.120Z,8.06
2017-03-17T01:34:17.173Z,8.14
2017-03-17T01:35:28.366Z,8.24
2017-03-17T01:36:39.563Z,8.25
2017-03-17T01:37:50.560Z,8.29
2017-03-17T01:39:01.568Z,8.32
2017-03-17T01:40:12.559Z,8.34
2017-03-17T01:41:23.745Z,8.35
2017-03-17T01:42:34.941Z,8.42
2017-03-17T01:43:45.930Z,8.46
2017-03-17T01:44:57.168Z,8.5
2017-03-17T01:46:08.160Z,8.57
2017-03-17T01:47:19.346Z,8.54
2017-03-17T01:48:30.335Z,8.52
2017-03-17T01:49:41.322Z,8.57
2017-03-17T01:50:52.340Z,8.61
2017-03-17T01:52:03.321Z,8.58
2017-03-17T01:53:14.303Z,8.57
2017-03-17T01:54:25.294Z,8.62
2017-03-17T01:55:36.287Z,8.62
2017-03-17T01:56:47.475Z,8.67
2017-03-17T01:57:58.472Z,8.71
2017-03-17T01:59:09.465Z,8.69
2017-03-17T02:00:20.467Z,8.79
2017-03-17T02:01:31.660Z,8.74
2017-03-17T02:02:42.653Z,8.8
2017-03-17T02:03:53.642Z,8.82
2017-03-17T02:05:04.829Z,8.86
2017-03-17T02:06:15.866Z,8.89
2017-03-17T02:07:27.052Z,8.89
2017-03-17T02:08:38.040Z,8.98
2017-03-17T02:09:49.046Z,8.94
2017-03-17T02:11:00.034Z,8.98
2017-03-17T02:12:11.019Z,9.03
2017-03-17T02:13:22.009Z,9.01
2017-03-17T02:14:33.007Z,9.11
2017-03-17T02:15:44.191Z,9.17
2017-03-17T02:16:55.232Z,9.14
2017-03-17T02:18:06.214Z,9.16
2017-03-17T02:19:17.195Z,9.11
2017-03-17T02:20:28.178Z,9.26
2017-03-17T02:21:39.173Z,9.26
2017-03-17T02:22:50.561Z,9.23
2017-03-17T02:24:01.554Z,9.27
2017-03-17T02:25:12.546Z,9.29
2017-03-17T02:26:23.739Z,9.29
2017-03-17T02:27:34.984Z,9.27
2017-03-17T02:28:45.972Z,9.3
2017-03-17T02:29:56.962Z,9.26
2017-03-17T02:31:08.157Z,9.35
2017-03-17T02:32:19.343Z,9.35
2017-03-17T02:33:30.387Z,9.26
2017-03-17T02:34:41.372Z,9.26
2017-03-17T02:35:52.366Z,9.32
2017-03-17T02:37:03.361Z,9.29
2017-03-17T02:38:14.354Z,9.27
2017-03-17T02:39:25.356Z,9.34
2017-03-17T02:40:36.557Z,9.35
2017-03-17T02:41:47.552Z,9.27
2017-03-17T02:42:58.547Z,9.35
2017-03-17T02:44:09.548Z,9.24
2017-03-17T02:45:20.790Z,9.32
2017-03-17T02:46:31.775Z,9.34
2017-03-17T02:47:42.761Z,9.21
2017-03-17T02:48:53.751Z,9.2
2017-03-17T02:50:04.751Z,9.23
2017-03-17T02:51:15.948Z,9.23
2017-03-17T02:52:26.936Z,9.21
2017-03-17T02:53:38.137Z,9.27
2017-03-17T02:54:49.185Z,9.21
2017-03-17T02:56:00.381Z,9.2
2017-03-17T02:57:11.364Z,9.24
2017-03-17T02:58:22.353Z,9.11
2017-03-17T02:59:33.360Z,9.26
2017-03-17T03:00:44.340Z,9.16
2017-03-17T03:01:55.329Z,9.26
2017-03-17T03:03:06.313Z,9.23
2017-03-17T03:04:17.512Z,9.3
2017-03-17T03:05:28.566Z,9.21
2017-03-17T03:06:39.558Z,9.23
2017-03-17T03:07:50.562Z,9.21
2017-03-17T03:09:01.751Z,9.29
2017-03-17T03:10:12.746Z,9.3
2017-03-17T03:11:23.740Z,9.32
2017-03-17T03:12:34.750Z,9.27
2017-03-17T03:13:45.761Z,9.3
2017-03-17T03:14:56.759Z,9.32
2017-03-17T03:16:08.201Z,9.38
2017-03-17T03:17:19.388Z,9.29
2017-03-17T03:18:30.587Z,9.37
2017-03-17T03:19:41.575Z,9.35
2017-03-17T03:20:52.775Z,9.35
2017-03-17T03:22:03.973Z,9.32
2017-03-17T03:23:14.961Z,9.3
2017-03-17T03:24:25.956Z,9.39
2017-03-17T03:25:36.937Z,9.39
2017-03-17T03:26:47.922Z,9.41
2017-03-17T03:27:58.930Z,9.34
2017-03-17T03:29:09.922Z,9.38
2017-03-17T03:30:20.914Z,9.34
2017-03-17T03:31:31.896Z,9.41
2017-03-17T03:32:42.930Z,9.29
2017-03-17T03:33:53.923Z,9.37
2017-03-17T03:35:04.919Z,9.29
2017-03-17T03:36:15.910Z,9.37
2017-03-17T03:37:26.894Z,9.32
2017-03-17T03:38:37.891Z,9.27
2017-03-17T03:39:48.886Z,9.32
2017-03-17T03:40:59.886Z,9.35
2017-03-17T03:42:11.075Z,9.39
2017-03-17T03:43:22.529Z,9.32
2017-03-17T03:44:33.527Z,9.35
2017-03-17T03:45:44.520Z,9.29
2017-03-17T03:46:55.514Z,9.34
2017-03-17T03:48:06.517Z,9.32
2017-03-17T03:49:17.507Z,9.32
2017-03-17T03:50:28.507Z,9.32
2017-03-17T03:51:39.504Z,9.34
2017-03-17T03:52:50.497Z,9.27
2017-03-17T03:54:01.764Z,9.29
2017-03-17T03:55:12.759Z,9.32
2017-03-17T03:56:23.751Z,9.32
2017-03-17T03:57:34.738Z,9.32
2017-03-17T03:58:45.741Z,9.27
2017-03-17T03:59:56.948Z,9.34
2017-03-17T04:01:07.934Z,9.26
2017-03-17T04:02:19.127Z,9.26
2017-03-17T04:03:30.121Z,9.24
2017-03-17T04:04:41.379Z,9.19
2017-03-17T04:05:52.369Z,9.26
2017-03-17T04:07:03.357Z,9.16
2017-03-17T04:08:14.550Z,9.23
2017-03-17T04:09:25.748Z,9.27
2017-03-17T04:10:36.739Z,9.24
2017-03-17T04:11:47.740Z,9.27
2017-03-17T04:12:58.728Z,9.24
2017-03-17T04:14:09.724Z,9.21
2017-03-17T04:15:20.918Z,9.26
2017-03-17T04:16:31.907Z,9.19
2017-03-17T04:17:42.947Z,9.19
2017-03-17T04:18:53.963Z,9.23
2017-03-17T04:20:04.956Z,9.24
2017-03-17T04:21:16.146Z,9.27
2017-03-17T04:22:27.195Z,9.24
2017-03-17T04:23:38.394Z,9.23
2017-03-17T04:24:49.391Z,9.21
2017-03-17T04:26:00.394Z,9.19
2017-03-17T04:27:11.378Z,9.24
2017-03-17T04:28:22.365Z,9.12
2017-03-17T04:29:33.382Z,9.16
2017-03-17T04:30:44.384Z,9.11
2017-03-17T04:31:55.879Z,9.11
2017-03-17T04:33:06.872Z,9.16
2017-03-17T04:34:17.884Z,9.11
2017-03-17T04:35:29.077Z,9.17
2017-03-17T04:36:40.296Z,9.16
2017-03-17T04:37:51.495Z,9.16
2017-03-17T04:39:02.494Z,9.14
2017-03-17T04:40:13.488Z,9.19
2017-03-17T04:41:24.488Z,9.17
2017-03-17T04:42:35.527Z,9.24
2017-03-17T04:43:46.524Z,9.19
2017-03-17T04:44:57.534Z,9.16
2017-03-17T04:46:08.543Z,9.19
2017-03-17T04:47:19.528Z,9.16
2017-03-17T04:48:30.524Z,9.2
2017-03-17T04:49:41.529Z,9.09
2017-03-17T04:50:52.524Z,9.17
2017-03-17T04:52:03.714Z,9.16
2017-03-17T04:53:14.983Z,9.12
2017-03-17T04:54:25.982Z,9.17
2017-03-17T04:55:36.962Z,9.19
2017-03-17T04:56:47.949Z,9.14
2017-03-17T04:57:58.929Z,9.17
2017-03-17T04:59:10.123Z,9.17
2017-03-17T05:00:21.314Z,9.16
2017-03-17T05:01:32.308Z,9.16
2017-03-17T05:02:43.503Z,9.2
2017-03-17T05:03:54.503Z,9.11
2017-03-17T05:05:05.945Z,9.16
2017-03-17T05:06:16.925Z,9.17
2017-03-17T05:07:27.920Z,9.12
2017-03-17T05:08:39.116Z,9.14
2017-03-17T05:09:50.096Z,9.08
2017-03-17T05:11:01.285Z,9.19
2017-03-17T05:12:12.473Z,9.08
2017-03-17T05:13:23.459Z,9.14
2017-03-17T05:14:34.502Z,9.16
2017-03-17T05:15:45.496Z,9.12
2017-03-17T05:16:56.478Z,9.09
2017-03-17T05:18:07.476Z,9.14
2017-03-17T05:19:18.664Z,9.08
2017-03-17T05:20:29.652Z,9.16
2017-03-17T05:21:40.635Z,9.16
2017-03-17T05:22:52.025Z,9.14
2017-03-17T05:24:03.050Z,9.2
2017-03-17T05:25:14.090Z,9.19
2017-03-17T05:26:25.085Z,9.08
2017-03-17T05:27:36.277Z,9.11
2017-03-17T05:28:47.272Z,9.04
2017-03-17T05:29:58.268Z,9.09
2017-03-17T05:31:09.256Z,9
2017-03-17T05:32:20.241Z,8.97
2017-03-17T05:33:31.228Z,8.98
2017-03-17T05:34:42.425Z,9.11
2017-03-17T05:35:53.466Z,9.03
2017-03-17T05:37:04.656Z,9.01
2017-03-17T05:38:15.642Z,9
2017-03-17T05:39:26.648Z,8.98
2017-03-17T05:40:37.633Z,9.01
2017-03-17T05:41:48.614Z,9.01
2017-03-17T05:42:59.602Z,8.92
2017-03-17T05:44:10.607Z,8.94
2017-03-17T05:45:21.601Z,8.94
2017-03-17T05:46:32.590Z,8.95
2017-03-17T05:47:43.640Z,9.01
2017-03-17T05:48:54.627Z,8.98
2017-03-17T05:50:05.613Z,9.05
2017-03-17T05:51:16.600Z,9.11
2017-03-17T05:52:27.591Z,9.09
2017-03-17T05:53:38.785Z,9.16
2017-03-17T05:54:49.793Z,9.21
2017-03-17T05:56:00.793Z,9.17
2017-03-17T05:57:12.036Z,9.12
2017-03-17T05:58:23.024Z,9.09
2017-03-17T05:59:34.019Z,9.09
2017-03-17T06:00:44.998Z,9.04
2017-03-17T06:01:55.998Z,9.19
2017-03-17T06:03:07.192Z,9.11
2017-03-17T06:04:18.183Z,9.2
2017-03-17T06:05:29.186Z,9.12
2017-03-17T06:06:40.170Z,9.14
2017-03-17T06:07:51.208Z,9.19
2017-03-17T06:09:02.210Z,9.16
2017-03-17T06:10:13.209Z,9.12
2017-03-17T06:11:24.208Z,9.14
2017-03-17T06:12:35.207Z,9.08
2017-03-17T06:13:46.214Z,9.09
2017-03-17T06:14:57.211Z,9.17
2017-03-17T06:16:08.211Z,9.11
2017-03-17T06:17:19.597Z,9.23
2017-03-17T06:18:30.633Z,9.19
2017-03-17T06:19:41.631Z,9.19
2017-03-17T06:20:52.845Z,9.2
2017-03-17T06:22:04.031Z,9.12
2017-03-17T06:23:15.225Z,9.16
2017-03-17T06:24:26.413Z,9.17
2017-03-17T06:25:37.408Z,9.09
2017-03-17T06:26:48.594Z,9.09
2017-03-17T06:27:59.788Z,9.2
2017-03-17T06:29:10.778Z,9.26
2017-03-17T06:30:22.176Z,9.11
2017-03-17T06:31:33.367Z,9.27
2017-03-17T06:32:44.358Z,9.27
2017-03-17T06:33:55.351Z,9.2
2017-03-17T06:35:06.389Z,9.24
2017-03-17T06:36:17.579Z,9.21
2017-03-17T06:37:28.572Z,9.2
2017-03-17T06:38:39.571Z,9.21
2017-03-17T06:39:50.578Z,9.24
2017-03-17T06:41:01.764Z,9.24
2017-03-17T06:42:12.742Z,9.23
2017-03-17T06:43:23.743Z,9.19
2017-03-17T06:44:34.743Z,9.27
2017-03-17T06:45:45.784Z,9.3
2017-03-17T06:46:56.774Z,9.23
2017-03-17T06:48:07.759Z,9.21
2017-03-17T06:49:18.758Z,9.26
2017-03-17T06:50:29.758Z,9.27
2017-03-17T06:51:40.776Z,9.27
2017-03-17T06:52:51.756Z,9.26
2017-03-17T06:54:02.756Z,9.26
2017-03-17T06:55:13.756Z,9.34
2017-03-17T06:56:25.203Z,9.2
2017-03-17T06:57:36.216Z,9.29
2017-03-17T06:58:47.433Z,9.26
2017-03-17T06:59:58.635Z,9.21
2017-03-17T07:01:09.848Z,9.21
2017-03-17T07:02:20.832Z,9.27
2017-03-17T07:03:31.825Z,9.2
2017-03-17T07:04:42.818Z,9.26
2017-03-17T07:05:53.850Z,9.24
2017-03-17T07:07:05.093Z,9.12
2017-03-17T07:08:16.105Z,9.16
2017-03-17T07:09:27.090Z,9.23
2017-03-17T07:10:38.288Z,9.2
2017-03-17T07:11:49.280Z,9.09
2017-03-17T07:13:00.273Z,9.19
2017-03-17T07:14:11.264Z,9.08
2017-03-17T07:15:22.261Z,9.2
2017-03-17T07:16:33.456Z,9.17
2017-03-17T07:17:44.449Z,9.14
2017-03-17T07:18:55.497Z,9.14
2017-03-17T07:20:06.492Z,9.2
2017-03-17T07:21:17.477Z,9.17
2017-03-17T07:22:28.463Z,9.2
2017-03-17T07:23:39.462Z,9.16
2017-03-17T07:24:50.902Z,9.17
2017-03-17T07:26:02.101Z,9.17
2017-03-17T07:27:13.091Z,9.16
2017-03-17T07:28:24.358Z,9.17
2017-03-17T07:29:35.358Z,9.16
2017-03-17T07:30:46.349Z,9.05
2017-03-17T07:31:57.339Z,9.16
2017-03-17T07:33:08.337Z,9.2
2017-03-17T07:34:19.332Z,9.12
2017-03-17T07:35:30.524Z,9.2
2017-03-17T07:36:41.517Z,9.17
2017-03-17T07:37:52.512Z,9.12
2017-03-17T07:39:03.765Z,9.12
2017-03-17T07:40:14.761Z,9.21
2017-03-17T07:41:25.757Z,9.16
2017-03-17T07:42:36.745Z,9.19
2017-03-17T07:43:47.741Z,9.19
2017-03-17T07:44:58.747Z,9.26
2017-03-17T07:46:09.932Z,9.19
2017-03-17T07:47:21.128Z,9.21
2017-03-17T07:48:32.121Z,9.32
2017-03-17T07:49:43.374Z,9.37
2017-03-17T07:50:54.366Z,9.35
2017-03-17T07:52:05.348Z,9.45
2017-03-17T07:53:16.344Z,9.44
2017-03-17T07:54:27.540Z,9.47
2017-03-17T07:55:38.603Z,9.56
2017-03-17T07:56:49.601Z,9.57
2017-03-17T07:58:00.601Z,9.57
2017-03-17T07:59:11.599Z,9.71
2017-03-17T08:00:22.595Z,9.67
2017-03-17T08:01:33.590Z,9.7
2017-03-17T08:02:44.783Z,9.84
2017-03-17T08:03:55.784Z,9.64
2017-03-17T08:05:06.780Z,9.78
2017-03-17T08:06:17.975Z,9.78
2017-03-17T08:07:29.007Z,9.82
2017-03-17T08:08:40.001Z,9.72
2017-03-17T08:09:50.993Z,9.75
2017-03-17T08:11:01.989Z,9.74
2017-03-17T08:12:13.191Z,9.77
2017-03-17T08:13:24.177Z,9.9
2017-03-17T08:14:35.179Z,9.89
2017-03-17T08:15:46.162Z,9.95
2017-03-17T08:16:57.205Z,9.96
2017-03-17T08:18:08.198Z,10.05
2017-03-17T08:19:19.194Z,10.08
2017-03-17T08:20:30.193Z,10.14
2017-03-17T08:21:41.182Z,10.15
2017-03-17T08:22:52.177Z,10.11
2017-03-17T08:24:03.175Z,10.2
2017-03-17T08:25:14.165Z,10.25
2017-03-17T08:26:25.358Z,10.33
2017-03-17T08:27:36.660Z,10.33
2017-03-17T08:28:47.860Z,10.32
2017-03-17T08:29:58.845Z,10.44
2017-03-17T08:31:09.865Z,10.47
2017-03-17T08:32:21.066Z,10.42
2017-03-17T08:33:32.055Z,10.42
2017-03-17T08:34:43.055Z,10.42
2017-03-17T08:35:54.046Z,10.33
2017-03-17T08:37:05.041Z,10.31
2017-03-17T08:38:16.281Z,10.28
2017-03-17T08:39:27.290Z,10.28
2017-03-17T08:40:38.268Z,10.33
2017-03-17T08:41:49.260Z,10.49
2017-03-17T08:43:00.461Z,10.52
2017-03-17T08:44:11.648Z,10.63
2017-03-17T08:45:22.646Z,10.72
2017-03-17T08:46:34.042Z,10.8
2017-03-17T08:47:45.038Z,10.76
2017-03-17T08:48:56.042Z,10.84
2017-03-17T08:50:07.275Z,11.2
2017-03-17T08:51:18.266Z,11.67
2017-03-17T08:52:29.256Z,12.1
2017-03-17T08:53:40.253Z,12.7
2017-03-17T08:54:51.455Z,13.29
2017-03-17T08:56:02.482Z,13.81
2017-03-17T08:57:13.483Z,14.15
2017-03-17T08:58:24.487Z,14.48
2017-03-17T08:59:35.745Z,14.67
2017-03-17T09:00:46.948Z,14.98
2017-03-17T09:01:57.954Z,15.3
2017-03-17T09:03:08.966Z,15.41
2017-03-17T09:04:20.369Z,15.74
2017-03-17T09:05:31.390Z,15.86
2017-03-17T09:06:42.581Z,15.49
2017-03-17T09:07:53.987Z,15.05
2017-03-17T09:09:05.000Z,14.52
2017-03-17T09:10:16.268Z,14.41
2017-03-17T09:11:27.274Z,14.24
2017-03-17T09:12:38.302Z,14.52
2017-03-17T09:13:49.314Z,14.77
2017-03-17T09:15:00.512Z,15.16
2017-03-17T09:16:11.520Z,15.51
2017-03-17T09:17:22.524Z,15.86
2017-03-17T09:18:33.552Z,16.13
2017-03-17T09:19:44.763Z,16.48
2017-03-17T09:20:55.798Z,16.52
2017-03-17T09:22:07.001Z,16.58
2017-03-17T09:23:18.012Z,16.66
2017-03-17T09:24:29.021Z,16.99
2017-03-17T09:25:40.027Z,16.72
2017-03-17T09:26:51.241Z,16.59
2017-03-17T09:28:02.249Z,16.72
2017-03-17T09:29:13.470Z,16.92
2017-03-17T09:30:24.488Z,16.97
2017-03-17T09:31:35.542Z,17.15
2017-03-17T09:32:46.559Z,17.39
2017-03-17T09:33:57.776Z,17.6
2017-03-17T09:35:08.990Z,17.83
2017-03-17T09:36:19.997Z,18.17
2017-03-17T09:37:31.012Z,18.32
2017-03-17T09:38:42.027Z,18.51
2017-03-17T09:39:53.036Z,18.76
2017-03-17T09:41:04.050Z,18.97
2017-03-17T09:42:15.712Z,19.17
2017-03-17T09:43:26.727Z,19.27
2017-03-17T09:44:37.740Z,19.65
2017-03-17T09:45:48.962Z,19.49
2017-03-17T09:46:59.969Z,19.63
2017-03-17T09:48:10.973Z,19.57
2017-03-17T09:49:21.984Z,19.25
2017-03-17T09:50:33.196Z,18.94
2017-03-17T09:51:44.412Z,18.31
2017-03-17T09:52:55.672Z,17.8
2017-03-17T09:54:06.680Z,17.42
2017-03-17T09:55:17.692Z,17.12
2017-03-17T09:56:28.694Z,16.69
2017-03-17T09:57:39.696Z,16.45
2017-03-17T09:58:50.750Z,16.45
2017-03-17T10:00:01.961Z,16.44
2017-03-17T10:01:12.969Z,16.25
2017-03-17T10:02:23.992Z,16.13
2017-03-17T10:03:35.000Z,16
2017-03-17T10:04:46.013Z,15.95
2017-03-17T10:05:57.450Z,15.96
2017-03-17T10:07:08.657Z,15.75
2017-03-17T10:08:19.864Z,15.52
2017-03-17T10:09:30.873Z,15.34
2017-03-17T10:10:42.327Z,15.15
2017-03-17T10:11:53.326Z,14.8
2017-03-17T10:13:04.537Z,14.77
2017-03-17T10:14:15.538Z,14.82
2017-03-17T10:15:26.540Z,14.77
2017-03-17T10:16:37.965Z,14.6
2017-03-17T10:17:49.168Z,14.33
2017-03-17T10:19:00.167Z,14.34
2017-03-17T10:20:11.483Z,14.31
2017-03-17T10:21:22.488Z,14.31
2017-03-17T10:22:33.494Z,14.24
2017-03-17T10:23:44.511Z,14.3
2017-03-17T10:24:55.509Z,14.53
2017-03-17T10:26:06.516Z,14.67
2017-03-17T10:27:17.516Z,15.04
2017-03-17T10:28:28.517Z,15.26
2017-03-17T10:29:39.519Z,15.44
2017-03-17T10:30:50.766Z,15.55
2017-03-17T10:32:01.776Z,15.74
2017-03-17T10:33:12.780Z,15.75
2017-03-17T10:34:23.779Z,15.67
2017-03-17T10:35:34.777Z,15.31
2017-03-17T10:36:45.782Z,15.16
2017-03-17T10:37:56.992Z,15.01
2017-03-17T10:39:08.190Z,14.86
2017-03-17T10:40:19.194Z,14.67
2017-03-17T10:41:30.437Z,14.57
2017-03-17T10:42:41.433Z,14.44
2017-03-17T10:43:52.439Z,14.33
2017-03-17T10:45:03.443Z,14.28
2017-03-17T10:46:14.646Z,14.02
2017-03-17T10:47:25.646Z,14.08
2017-03-17T10:48:36.843Z,13.81
2017-03-17T10:49:47.852Z,13.83
2017-03-17T10:50:58.852Z,13.78
2017-03-17T10:52:10.049Z,13.69
2017-03-17T10:53:21.050Z,13.57
2017-03-17T10:54:32.055Z,13.48
2017-03-17T10:55:43.248Z,13.39
2017-03-17T10:56:54.254Z,13.4
2017-03-17T10:58:05.258Z,13.32
2017-03-17T10:59:16.509Z,13.16
2017-03-17T11:00:27.525Z,13.21
2017-03-17T11:01:38.750Z,13.19
2017-03-17T11:02:49.746Z,13.2
2017-03-17T11:04:00.751Z,13.16
2017-03-17T11:05:11.766Z,13.02
2017-03-17T11:06:22.765Z,12.95
2017-03-17T11:07:33.764Z,12.84
2017-03-17T11:08:45.053Z,12.8
2017-03-17T11:09:56.052Z,12.84
2017-03-17T11:11:07.045Z,12.74
2017-03-17T11:12:18.246Z,12.74
2017-03-17T11:13:29.248Z,12.62
2017-03-17T11:14:40.245Z,12.74
2017-03-17T11:15:51.236Z,12.58
2017-03-17T11:17:02.222Z,12.53
2017-03-17T11:18:13.425Z,12.62
2017-03-17T11:19:24.676Z,12.59
2017-03-17T11:20:35.871Z,12.58
2017-03-17T11:21:46.894Z,12.53
2017-03-17T11:22:57.886Z,12.48
2017-03-17T11:24:08.887Z,12.47
2017-03-17T11:25:19.882Z,12.37
2017-03-17T11:26:30.880Z,12.37
2017-03-17T11:27:41.872Z,12.26
2017-03-17T11:28:52.875Z,12.28
2017-03-17T11:30:03.939Z,12.31
2017-03-17T11:31:14.934Z,12.34
2017-03-17T11:32:25.931Z,12.31
2017-03-17T11:33:36.922Z,12.22
2017-03-17T11:34:47.926Z,12.16
2017-03-17T11:35:58.909Z,12.2
2017-03-17T11:37:10.317Z,12.11
2017-03-17T11:38:21.317Z,12.15
2017-03-17T11:39:32.313Z,12.08
2017-03-17T11:40:43.321Z,12.11
2017-03-17T11:41:54.368Z,12.07
2017-03-17T11:43:05.769Z,11.88
2017-03-17T11:44:16.769Z,12.04
2017-03-17T11:45:27.765Z,12.13
2017-03-17T11:46:38.976Z,12.15
2017-03-17T11:47:49.967Z,12.04
2017-03-17T11:49:00.968Z,12.2
2017-03-17T11:50:11.989Z,12.15
2017-03-17T11:51:23.031Z,12.05
2017-03-17T11:52:34.033Z,11.94
2017-03-17T11:53:45.028Z,11.86
2017-03-17T11:54:56.023Z,11.82
2017-03-17T11:56:07.020Z,11.88
2017-03-17T11:57:18.005Z,12.03
2017-03-17T11:58:29.000Z,12.01
2017-03-17T11:59:39.999Z,12.1
2017-03-17T12:00:51.004Z,12.11
2017-03-17T12:02:02.050Z,12.15
2017-03-17T12:03:13.040Z,12.22
2017-03-17T12:04:24.253Z,12.34
2017-03-17T12:05:35.449Z,12.28
2017-03-17T12:06:46.444Z,12.34
2017-03-17T12:07:57.441Z,12.22
2017-03-17T12:09:08.445Z,12.2
2017-03-17T12:10:19.644Z,12.2
2017-03-17T12:11:30.642Z,12.19
2017-03-17T12:12:41.692Z,12.23
2017-03-17T12:13:52.688Z,12.25
2017-03-17T12:15:04.101Z,12.28
2017-03-17T12:16:15.123Z,12.23
2017-03-17T12:17:26.120Z,12.07
2017-03-17T12:18:37.315Z,12.1
2017-03-17T12:19:48.300Z,12.05
2017-03-17T12:20:59.283Z,12.01
2017-03-17T12:22:10.282Z,12.07
2017-03-17T12:23:21.273Z,12.03
2017-03-17T12:24:32.518Z,12.05
2017-03-17T12:25:43.526Z,12.11
2017-03-17T12:26:54.521Z,12.08
2017-03-17T12:28:05.520Z,12.05
2017-03-17T12:29:16.521Z,12.07
2017-03-17T12:30:27.534Z,12.05
2017-03-17T12:31:38.734Z,12.15
2017-03-17T12:32:49.737Z,12.1
2017-03-17T12:34:00.780Z,12.1
2017-03-17T12:35:11.772Z,12.08
2017-03-17T12:36:22.964Z,12.11
2017-03-17T12:37:33.959Z,12.15
2017-03-17T12:38:44.946Z,12.1
2017-03-17T12:39:56.146Z,12.23
2017-03-17T12:41:07.143Z,12.19
2017-03-17T12:42:18.340Z,12.31
2017-03-17T12:43:29.337Z,12.41
2017-03-17T12:44:40.384Z,12.41
2017-03-17T12:45:51.574Z,12.44
2017-03-17T12:47:02.563Z,12.52
2017-03-17T12:48:13.560Z,12.41
2017-03-17T12:49:24.765Z,12.44
2017-03-17T12:50:36.163Z,12.44
2017-03-17T12:51:47.366Z,12.25
2017-03-17T12:52:58.359Z,12.31
2017-03-17T12:54:09.359Z,12.29
2017-03-17T12:55:20.404Z,12.2
2017-03-17T12:56:31.400Z,12.11
2017-03-17T12:57:42.594Z,12.1
2017-03-17T12:58:53.593Z,12.01
2017-03-17T13:00:04.592Z,12.01
2017-03-17T13:01:15.584Z,12.07
2017-03-17T13:02:26.569Z,12.08
2017-03-17T13:03:37.563Z,12.1
2017-03-17T13:04:48.597Z,12.16
2017-03-17T13:05:59.597Z,12.04
2017-03-17T13:07:10.596Z,12.1
2017-03-17T13:08:21.593Z,12.11
2017-03-17T13:09:32.592Z,12.2
2017-03-17T13:10:43.577Z,12.34
2017-03-17T13:11:54.576Z,12.44
2017-03-17T13:13:05.829Z,12.48
2017-03-17T13:14:16.834Z,12.58
2017-03-17T13:15:27.834Z,12.58
2017-03-17T13:16:38.832Z,12.38
2017-03-17T13:17:49.828Z,12.34
2017-03-17T13:19:00.829Z,12.41
2017-03-17T13:20:11.821Z,12.44
2017-03-17T13:21:22.813Z,12.48
2017-03-17T13:22:34.263Z,12.36
2017-03-17T13:23:45.261Z,12.37
2017-03-17T13:24:56.470Z,12.28
2017-03-17T13:26:07.869Z,12.26
2017-03-17T13:27:18.856Z,12.36
2017-03-17T13:28:30.060Z,12.31
2017-03-17T13:29:41.053Z,12.31
2017-03-17T13:30:52.045Z,12.34
2017-03-17T13:32:03.077Z,12.22
2017-03-17T13:33:14.131Z,12.13
2017-03-17T13:34:25.130Z,12.03
2017-03-17T13:35:36.124Z,11.82
2017-03-17T13:36:47.117Z,11.84
2017-03-17T13:37:58.116Z,11.88
2017-03-17T13:39:09.126Z,11.88
2017-03-17T13:40:20.332Z,11.91
2017-03-17T13:41:31.323Z,11.98
2017-03-17T13:42:42.326Z,11.97
2017-03-17T13:43:53.777Z,12.08
2017-03-17T13:45:04.766Z,12.15
2017-03-17T13:46:15.775Z,12.25
2017-03-17T13:47:26.776Z,12.25
2017-03-17T13:48:37.983Z,12.28
2017-03-17T13:49:48.985Z,12.44
2017-03-17T13:51:00.021Z,12.41
2017-03-17T13:52:11.017Z,12.38
2017-03-17T13:53:22.007Z,12.44
2017-03-17T13:54:33.208Z,12.43
2017-03-17T13:55:44.256Z,12.38
2017-03-17T13:56:55.450Z,12.38
2017-03-17T13:58:06.456Z,12.34
2017-03-17T13:59:17.459Z,12.33
2017-03-17T14:00:28.448Z,12.26
2017-03-17T14:01:39.439Z,12.31
2017-03-17T14:02:50.430Z,12.25
2017-03-17T14:04:01.425Z,12.31
2017-03-17T14:05:12.472Z,12.31
2017-03-17T14:06:23.455Z,12.28
2017-03-17T14:07:34.455Z,12.29
2017-03-17T14:08:45.661Z,12.29
2017-03-17T14:09:56.873Z,12.38
2017-03-17T14:11:07.870Z,12.37
2017-03-17T14:12:18.864Z,12.47
2017-03-17T14:13:29.853Z,12.59
2017-03-17T14:14:41.047Z,12.61
2017-03-17T14:15:52.502Z,12.81
2017-03-17T14:17:03.493Z,12.89
2017-03-17T14:18:14.508Z,13.06
2017-03-17T14:19:25.518Z,13.09
2017-03-17T14:20:36.713Z,13.03
2017-03-17T14:21:47.705Z,12.95
2017-03-17T14:22:58.694Z,12.98
2017-03-17T14:24:09.889Z,12.95
2017-03-17T14:25:20.908Z,12.78
2017-03-17T14:26:32.154Z,12.58
2017-03-17T14:27:43.160Z,12.53
2017-03-17T14:28:54.154Z,12.47
2017-03-17T14:30:05.145Z,12.38
2017-03-17T14:31:16.141Z,12.31
2017-03-17T14:32:27.341Z,12.33
2017-03-17T14:33:38.541Z,12.43
2017-03-17T14:34:49.530Z,12.4
2017-03-17T14:36:00.521Z,12.51
2017-03-17T14:37:11.508Z,12.58
2017-03-17T14:38:22.955Z,12.58
2017-03-17T14:39:33.954Z,12.55
2017-03-17T14:40:44.948Z,12.51
2017-03-17T14:41:55.945Z,12.55
2017-03-17T14:43:06.943Z,12.59
2017-03-17T14:44:17.944Z,12.45
2017-03-17T14:45:28.937Z,12.51
2017-03-17T14:46:39.944Z,12.43
2017-03-17T14:47:51.001Z,12.44
2017-03-17T14:49:02.202Z,12.41
2017-03-17T14:50:13.204Z,12.26
2017-03-17T14:51:24.193Z,12.29
2017-03-17T14:52:35.185Z,12.34
2017-03-17T14:53:46.186Z,12.23
2017-03-17T14:54:57.391Z,12.2
2017-03-17T14:56:08.385Z,12.19
2017-03-17T14:57:19.399Z,12.22
2017-03-17T14:58:30.653Z,12.28
2017-03-17T14:59:41.860Z,12.26
2017-03-17T15:00:52.853Z,12.29
2017-03-17T15:02:03.858Z,12.33
2017-03-17T15:03:14.842Z,12.33
2017-03-17T15:04:25.847Z,12.25
2017-03-17T15:05:36.843Z,12.22
2017-03-17T15:06:48.042Z,12.25
2017-03-17T15:07:59.261Z,12.08
2017-03-17T15:09:10.532Z,12.15
2017-03-17T15:10:21.526Z,12.07
2017-03-17T15:11:32.728Z,12.15
2017-03-17T15:12:43.712Z,12.03
2017-03-17T15:13:54.714Z,12.03
2017-03-17T15:15:05.699Z,12.05
2017-03-17T15:16:16.901Z,12.04
2017-03-17T15:17:27.910Z,11.94
2017-03-17T15:18:38.917Z,11.95
2017-03-17T15:19:49.908Z,11.94
2017-03-17T15:21:00.947Z,11.95
2017-03-17T15:22:11.941Z,11.97
2017-03-17T15:23:22.933Z,11.95
2017-03-17T15:24:33.935Z,11.89
2017-03-17T15:25:44.931Z,11.84
2017-03-17T15:26:55.926Z,11.81
2017-03-17T15:28:07.128Z,11.79
2017-03-17T15:29:18.128Z,11.84
2017-03-17T15:30:29.384Z,11.82
2017-03-17T15:31:40.388Z,11.88
2017-03-17T15:32:51.388Z,11.84
2017-03-17T15:34:02.386Z,11.71